Airfield :
LOGIN :

Register | Disclaimer

   EN    FR    IT 

 










Legend :    VFR   Marginal VFR   IFR   Intensive IFR   Very Intensive IFR
Visi :
Ceiling :
>= 8 km
>= 3000ft
5 to 8 km
1000 to 3000 ft
1500m to 5 km
500 to 1000 ft
800 to 1500m
200 to 500 ft
< 800m
< 200 ft
Symbols :   Thunderstorms  Fog  Heavy snow  Heavy precipitations  Wind > 20 kt
SIGMETs :     Misc.  Thunderstorms  Icing  Turbulence  Mountain Waves  Volcanic Ashes







- Airport Elevation : 27 ft
- IATA code : PMI


LEPA - Palma de Mallorca

CURRENT METAR :
  • 181800Z 08004KT 060V120 9999 FEW022 14/12 Q1007 NOSIG

EXPIRED METARs :
  • 181730Z 06005KT 9999 FEW026 15/12 Q1007 NOSIG
  • 181700Z 06006KT 9999 FEW026 15/12 Q1007 NOSIG
  • 181630Z 05006KT 9999 FEW024 SCT035 15/12 Q1007 NOSIG
  • 181600Z 07007KT 050V110 9999 FEW024 SCT035 16/12 Q1008 NOSIG
  • 181530Z 08006KT 9999 FEW024 SCT035 17/13 Q1008 NOSIG

TAF TAF LEPA
Valid from the 18 at 18:00 until the 19 at 18:00 UTC


181700Z 1818/1918 07009KT 9999 BKN020 TX16/1912Z TN09/1906Z
PROB30
TEMPO 1818/1824 4000 SHRA BKN020 FEW022TCU
TEMPO 1900/1916 3000 SHRA BKN020 FEW022TCU
PROB40
TEMPO 1904/1912 05015G25KT 1500 +TSRA BKN015 SCT020CB BKN022
No reported NOTAMs for that airfield.
1 SIGMET reported for the Barcelona FIR (LECB) :
 
Embedded thunderstorms
LECB SIGMET 7 VALID 181800/182000 LEVA
LECB BARCELONA FIR/UIR EMBD TS OBS AT 1748Z W OF LINE N3809 W00028 - N3547 W00123 TOP FL380 MOV NE NC=



MET'MAP, your aeronautical weather chart ! - Copyright ORBIFLY December 2007 - Disclaimer

ORBIFLY MET'MAP TEAM :

Programming & Development : Alexandra Zaïnal
Concept & Development : Baudouin d'Aumeries
Co-Development & Prog : Marc-Olivier Méhu
Technical & hardware support : Manuel Goepfert

Contact : metmap@orbifly.com




SOURCES & CREDITS :

   NOAA